sensor_id;sensor_type;location;lat;lon;timestamp;P1;durP1;ratioP1;P2;durP2;ratioP2
41329;SDS011;34792;52.154;10.374;2022-11-20T00:02:15;6.03;;;4.20;;
41329;SDS011;34792;52.154;10.374;2022-11-20T00:04:40;5.30;;;3.22;;
41329;SDS011;34792;52.154;10.374;2022-11-20T00:07:06;8.43;;;4.47;;
41329;SDS011;34792;52.154;10.374;2022-11-20T00:09:31;6.28;;;3.88;;
41329;SDS011;34792;52.154;10.374;2022-11-20T00:11:57;6.30;;;3.75;;
41329;SDS011;34792;52.154;10.374;2022-11-20T00:14:22;5.85;;;3.55;;
41329;SDS011;34792;52.154;10.374;2022-11-20T00:16:48;8.60;;;4.35;;
41329;SDS011;34792;52.154;10.374;2022-11-20T00:19:14;5.93;;;3.72;;
41329;SDS011;34792;52.154;10.374;2022-11-20T00:21:39;5.28;;;3.28;;
41329;SDS011;34792;52.154;10.374;2022-11-20T00:24:05;7.30;;;3.58;;
41329;SDS011;34792;52.154;10.374;2022-11-20T00:26:32;5.03;;;2.92;;
41329;SDS011;34792;52.154;10.374;2022-11-20T00:28:59;6.53;;;4.50;;
41329;SDS011;34792;52.154;10.374;2022-11-20T00:31:25;8.55;;;3.55;;
41329;SDS011;34792;52.154;10.374;2022-11-20T00:33:52;12.48;;;4.53;;
41329;SDS011;34792;52.154;10.374;2022-11-20T00:36:22;5.35;;;3.70;;
41329;SDS011;34792;52.154;10.374;2022-11-20T00:38:52;4.05;;;3.05;;
41329;SDS011;34792;52.154;10.374;2022-11-20T00:41:22;5.47;;;3.38;;
41329;SDS011;34792;52.154;10.374;2022-11-20T00:43:48;6.00;;;3.55;;
41329;SDS011;34792;52.154;10.374;2022-11-20T00:46:15;7.18;;;4.70;;
41329;SDS011;34792;52.154;10.374;2022-11-20T00:48:42;7.50;;;3.45;;
41329;SDS011;34792;52.154;10.374;2022-11-20T00:51:08;6.63;;;3.72;;
41329;SDS011;34792;52.154;10.374;2022-11-20T00:53:34;6.32;;;3.40;;
41329;SDS011;34792;52.154;10.374;2022-11-20T00:56:03;4.35;;;3.40;;
41329;SDS011;34792;52.154;10.374;2022-11-20T00:58:32;5.40;;;3.53;;
41329;SDS011;34792;52.154;10.374;2022-11-20T01:00:59;4.75;;;3.35;;
41329;SDS011;34792;52.154;10.374;2022-11-20T01:03:33;5.55;;;3.45;;
41329;SDS011;34792;52.154;10.374;2022-11-20T01:06:00;5.32;;;3.42;;
41329;SDS011;34792;52.154;10.374;2022-11-20T01:08:31;5.57;;;3.47;;
41329;SDS011;34792;52.154;10.374;2022-11-20T01:11:14;6.70;;;4.28;;
41329;SDS011;34792;52.154;10.374;2022-11-20T01:13:45;6.32;;;3.45;;
41329;SDS011;34792;52.154;10.374;2022-11-20T01:18:45;6.72;;;3.28;;
41329;SDS011;34792;52.154;10.374;2022-11-20T01:21:12;4.47;;;3.42;;
41329;SDS011;34792;52.154;10.374;2022-11-20T01:23:41;4.10;;;2.90;;
41329;SDS011;34792;52.154;10.374;2022-11-20T01:26:08;3.80;;;2.22;;
41329;SDS011;34792;52.154;10.374;2022-11-20T01:28:35;4.32;;;3.08;;
41329;SDS011;34792;52.154;10.374;2022-11-20T01:31:01;4.93;;;3.13;;
41329;SDS011;34792;52.154;10.374;2022-11-20T01:33:27;6.15;;;3.63;;
41329;SDS011;34792;52.154;10.374;2022-11-20T01:35:53;6.75;;;3.60;;
41329;SDS011;34792;52.154;10.374;2022-11-20T01:38:18;5.85;;;3.33;;
41329;SDS011;34792;52.154;10.374;2022-11-20T01:40:54;5.30;;;3.53;;
41329;SDS011;34792;52.154;10.374;2022-11-20T01:43:20;4.68;;;3.22;;
41329;SDS011;34792;52.154;10.374;2022-11-20T01:48:15;5.43;;;3.75;;
41329;SDS011;34792;52.154;10.374;2022-11-20T01:50:42;4.95;;;3.33;;
41329;SDS011;34792;52.154;10.374;2022-11-20T01:53:09;4.88;;;3.08;;
41329;SDS011;34792;52.154;10.374;2022-11-20T01:55:39;4.35;;;3.55;;
41329;SDS011;34792;52.154;10.374;2022-11-20T01:58:09;5.30;;;3.42;;
41329;SDS011;34792;52.154;10.374;2022-11-20T02:00:34;5.55;;;3.47;;
41329;SDS011;34792;52.154;10.374;2022-11-20T02:03:01;7.00;;;3.50;;
41329;SDS011;34792;52.154;10.374;2022-11-20T02:08:19;5.25;;;3.55;;
41329;SDS011;34792;52.154;10.374;2022-11-20T02:10:45;5.95;;;3.75;;
41329;SDS011;34792;52.154;10.374;2022-11-20T02:13:10;6.05;;;3.75;;
41329;SDS011;34792;52.154;10.374;2022-11-20T02:15:54;5.32;;;3.65;;
41329;SDS011;34792;52.154;10.374;2022-11-20T02:18:20;5.00;;;3.90;;
41329;SDS011;34792;52.154;10.374;2022-11-20T02:20:47;5.07;;;2.97;;
41329;SDS011;34792;52.154;10.374;2022-11-20T02:23:25;4.88;;;3.13;;
41329;SDS011;34792;52.154;10.374;2022-11-20T02:25:57;6.53;;;3.33;;
41329;SDS011;34792;52.154;10.374;2022-11-20T02:28:23;5.72;;;3.70;;
41329;SDS011;34792;52.154;10.374;2022-11-20T02:30:49;4.38;;;2.70;;
41329;SDS011;34792;52.154;10.374;2022-11-20T02:33:14;5.18;;;3.47;;
41329;SDS011;34792;52.154;10.374;2022-11-20T02:35:45;5.40;;;3.08;;
41329;SDS011;34792;52.154;10.374;2022-11-20T02:38:11;4.00;;;2.53;;
41329;SDS011;34792;52.154;10.374;2022-11-20T02:40:37;4.57;;;2.80;;
41329;SDS011;34792;52.154;10.374;2022-11-20T02:43:02;4.95;;;3.33;;
41329;SDS011;34792;52.154;10.374;2022-11-20T02:45:28;4.00;;;2.40;;
41329;SDS011;34792;52.154;10.374;2022-11-20T02:47:53;4.90;;;3.22;;
41329;SDS011;34792;52.154;10.374;2022-11-20T02:50:19;6.78;;;4.35;;
41329;SDS011;34792;52.154;10.374;2022-11-20T02:52:45;5.10;;;3.47;;
41329;SDS011;34792;52.154;10.374;2022-11-20T02:55:10;3.40;;;2.65;;
41329;SDS011;34792;52.154;10.374;2022-11-20T02:57:36;5.30;;;2.85;;
41329;SDS011;34792;52.154;10.374;2022-11-20T03:00:03;5.03;;;3.00;;
41329;SDS011;34792;52.154;10.374;2022-11-20T03:02:30;5.45;;;3.58;;
41329;SDS011;34792;52.154;10.374;2022-11-20T03:04:55;5.28;;;3.28;;
41329;SDS011;34792;52.154;10.374;2022-11-20T03:07:21;3.78;;;2.60;;
41329;SDS011;34792;52.154;10.374;2022-11-20T03:09:46;5.20;;;2.80;;
41329;SDS011;34792;52.154;10.374;2022-11-20T03:12:12;4.07;;;2.97;;
41329;SDS011;34792;52.154;10.374;2022-11-20T03:14:38;4.80;;;2.83;;
41329;SDS011;34792;52.154;10.374;2022-11-20T03:17:04;4.45;;;2.80;;
41329;SDS011;34792;52.154;10.374;2022-11-20T03:19:29;4.22;;;2.97;;
41329;SDS011;34792;52.154;10.374;2022-11-20T03:21:55;4.10;;;2.80;;
41329;SDS011;34792;52.154;10.374;2022-11-20T03:24:20;4.68;;;2.75;;
41329;SDS011;34792;52.154;10.374;2022-11-20T03:26:46;4.70;;;2.70;;
41329;SDS011;34792;52.154;10.374;2022-11-20T03:29:11;5.28;;;3.83;;
41329;SDS011;34792;52.154;10.374;2022-11-20T03:31:38;5.70;;;2.88;;
41329;SDS011;34792;52.154;10.374;2022-11-20T03:34:08;4.90;;;2.72;;
41329;SDS011;34792;52.154;10.374;2022-11-20T03:36:37;8.10;;;3.50;;
41329;SDS011;34792;52.154;10.374;2022-11-20T03:39:03;4.10;;;3.00;;
41329;SDS011;34792;52.154;10.374;2022-11-20T03:41:30;5.57;;;3.08;;
41329;SDS011;34792;52.154;10.374;2022-11-20T03:43:57;5.70;;;3.33;;
41329;SDS011;34792;52.154;10.374;2022-11-20T03:46:24;4.35;;;2.70;;
41329;SDS011;34792;52.154;10.374;2022-11-20T03:48:49;3.90;;;2.75;;
41329;SDS011;34792;52.154;10.374;2022-11-20T03:51:16;4.75;;;2.92;;
41329;SDS011;34792;52.154;10.374;2022-11-20T03:53:50;3.65;;;2.38;;
41329;SDS011;34792;52.154;10.374;2022-11-20T03:56:17;4.15;;;2.72;;
41329;SDS011;34792;52.154;10.374;2022-11-20T03:58:44;4.43;;;2.63;;
41329;SDS011;34792;52.154;10.374;2022-11-20T04:01:11;4.43;;;2.90;;
41329;SDS011;34792;52.154;10.374;2022-11-20T04:03:38;4.63;;;2.75;;
41329;SDS011;34792;52.154;10.374;2022-11-20T04:06:05;5.65;;;3.60;;
41329;SDS011;34792;52.154;10.374;2022-11-20T04:08:41;6.63;;;3.60;;
41329;SDS011;34792;52.154;10.374;2022-11-20T04:13:46;3.85;;;2.58;;
41329;SDS011;34792;52.154;10.374;2022-11-20T04:16:14;3.88;;;2.47;;
41329;SDS011;34792;52.154;10.374;2022-11-20T04:18:40;5.63;;;3.20;;
41329;SDS011;34792;52.154;10.374;2022-11-20T04:21:06;6.15;;;3.53;;
41329;SDS011;34792;52.154;10.374;2022-11-20T04:23:32;4.03;;;2.72;;
41329;SDS011;34792;52.154;10.374;2022-11-20T04:26:04;5.30;;;3.60;;
41329;SDS011;34792;52.154;10.374;2022-11-20T04:28:31;4.07;;;2.55;;
41329;SDS011;34792;52.154;10.374;2022-11-20T04:31:07;4.47;;;2.40;;
41329;SDS011;34792;52.154;10.374;2022-11-20T04:33:37;3.90;;;2.33;;
41329;SDS011;34792;52.154;10.374;2022-11-20T04:36:04;5.15;;;2.70;;
41329;SDS011;34792;52.154;10.374;2022-11-20T04:38:37;4.10;;;2.50;;
41329;SDS011;34792;52.154;10.374;2022-11-20T04:41:04;3.90;;;2.42;;
41329;SDS011;34792;52.154;10.374;2022-11-20T04:43:31;3.85;;;2.30;;
41329;SDS011;34792;52.154;10.374;2022-11-20T04:45:57;3.30;;;2.35;;
41329;SDS011;34792;52.154;10.374;2022-11-20T04:48:23;4.28;;;2.90;;
41329;SDS011;34792;52.154;10.374;2022-11-20T04:50:49;4.43;;;2.30;;
41329;SDS011;34792;52.154;10.374;2022-11-20T04:53:15;4.15;;;3.03;;
41329;SDS011;34792;52.154;10.374;2022-11-20T04:55:40;6.57;;;3.15;;
41329;SDS011;34792;52.154;10.374;2022-11-20T04:58:06;3.45;;;2.20;;
41329;SDS011;34792;52.154;10.374;2022-11-20T05:00:31;3.80;;;2.25;;
41329;SDS011;34792;52.154;10.374;2022-11-20T05:02:57;4.60;;;2.30;;
41329;SDS011;34792;52.154;10.374;2022-11-20T05:05:22;3.30;;;2.42;;
41329;SDS011;34792;52.154;10.374;2022-11-20T05:07:48;3.53;;;2.20;;
41329;SDS011;34792;52.154;10.374;2022-11-20T05:10:14;3.75;;;1.98;;
41329;SDS011;34792;52.154;10.374;2022-11-20T05:12:40;4.35;;;2.20;;
41329;SDS011;34792;52.154;10.374;2022-11-20T05:15:05;4.10;;;2.47;;
41329;SDS011;34792;52.154;10.374;2022-11-20T05:17:31;4.38;;;2.85;;
41329;SDS011;34792;52.154;10.374;2022-11-20T05:19:57;4.20;;;2.65;;
41329;SDS011;34792;52.154;10.374;2022-11-20T05:22:22;3.35;;;2.60;;
41329;SDS011;34792;52.154;10.374;2022-11-20T05:24:48;5.13;;;2.45;;
41329;SDS011;34792;52.154;10.374;2022-11-20T05:27:13;3.53;;;2.28;;
41329;SDS011;34792;52.154;10.374;2022-11-20T05:29:39;4.18;;;2.50;;
41329;SDS011;34792;52.154;10.374;2022-11-20T05:32:04;2.83;;;1.80;;
41329;SDS011;34792;52.154;10.374;2022-11-20T05:34:32;3.35;;;2.20;;
41329;SDS011;34792;52.154;10.374;2022-11-20T05:36:57;5.10;;;3.28;;
41329;SDS011;34792;52.154;10.374;2022-11-20T05:39:23;4.72;;;2.72;;
41329;SDS011;34792;52.154;10.374;2022-11-20T05:41:48;4.82;;;2.53;;
41329;SDS011;34792;52.154;10.374;2022-11-20T05:44:34;4.82;;;2.40;;
41329;SDS011;34792;52.154;10.374;2022-11-20T05:46:59;3.80;;;1.92;;
41329;SDS011;34792;52.154;10.374;2022-11-20T05:49:25;3.65;;;2.08;;
41329;SDS011;34792;52.154;10.374;2022-11-20T05:51:50;5.32;;;3.20;;
41329;SDS011;34792;52.154;10.374;2022-11-20T05:54:16;2.90;;;1.83;;
41329;SDS011;34792;52.154;10.374;2022-11-20T05:56:42;3.22;;;1.88;;
41329;SDS011;34792;52.154;10.374;2022-11-20T05:59:07;3.45;;;2.42;;
41329;SDS011;34792;52.154;10.374;2022-11-20T06:01:33;3.65;;;2.20;;
41329;SDS011;34792;52.154;10.374;2022-11-20T06:04:01;3.78;;;2.90;;
41329;SDS011;34792;52.154;10.374;2022-11-20T06:06:26;4.72;;;2.97;;
41329;SDS011;34792;52.154;10.374;2022-11-20T06:08:52;4.28;;;2.92;;
41329;SDS011;34792;52.154;10.374;2022-11-20T06:11:18;2.58;;;1.67;;
41329;SDS011;34792;52.154;10.374;2022-11-20T06:13:43;2.65;;;1.90;;
41329;SDS011;34792;52.154;10.374;2022-11-20T06:16:10;3.67;;;2.08;;
41329;SDS011;34792;52.154;10.374;2022-11-20T06:18:36;3.03;;;1.77;;
41329;SDS011;34792;52.154;10.374;2022-11-20T06:23:37;5.55;;;2.90;;
41329;SDS011;34792;52.154;10.374;2022-11-20T06:26:04;2.92;;;2.13;;
41329;SDS011;34792;52.154;10.374;2022-11-20T06:28:31;4.55;;;2.63;;
41329;SDS011;34792;52.154;10.374;2022-11-20T06:30:58;3.20;;;2.20;;
41329;SDS011;34792;52.154;10.374;2022-11-20T06:33:24;3.88;;;2.63;;
41329;SDS011;34792;52.154;10.374;2022-11-20T06:35:50;3.50;;;2.08;;
41329;SDS011;34792;52.154;10.374;2022-11-20T06:38:15;3.65;;;2.00;;
41329;SDS011;34792;52.154;10.374;2022-11-20T06:40:41;3.45;;;1.63;;
41329;SDS011;34792;52.154;10.374;2022-11-20T06:43:08;4.30;;;2.65;;
41329;SDS011;34792;52.154;10.374;2022-11-20T06:45:34;3.58;;;1.95;;
41329;SDS011;34792;52.154;10.374;2022-11-20T06:47:59;3.35;;;2.40;;
41329;SDS011;34792;52.154;10.374;2022-11-20T06:50:25;4.18;;;2.38;;
41329;SDS011;34792;52.154;10.374;2022-11-20T06:52:51;4.00;;;2.50;;
41329;SDS011;34792;52.154;10.374;2022-11-20T06:55:16;4.18;;;1.83;;
41329;SDS011;34792;52.154;10.374;2022-11-20T06:57:42;3.05;;;1.80;;
41329;SDS011;34792;52.154;10.374;2022-11-20T07:00:07;3.83;;;2.53;;
41329;SDS011;34792;52.154;10.374;2022-11-20T07:02:33;4.30;;;2.05;;
41329;SDS011;34792;52.154;10.374;2022-11-20T07:04:59;4.00;;;2.30;;
41329;SDS011;34792;52.154;10.374;2022-11-20T07:07:24;4.30;;;2.75;;
41329;SDS011;34792;52.154;10.374;2022-11-20T07:09:50;3.13;;;1.88;;
41329;SDS011;34792;52.154;10.374;2022-11-20T07:12:16;4.25;;;2.10;;
41329;SDS011;34792;52.154;10.374;2022-11-20T07:14:41;5.45;;;2.83;;
41329;SDS011;34792;52.154;10.374;2022-11-20T07:17:07;3.03;;;2.00;;
41329;SDS011;34792;52.154;10.374;2022-11-20T07:19:33;3.70;;;2.22;;
41329;SDS011;34792;52.154;10.374;2022-11-20T07:21:58;4.07;;;2.22;;
41329;SDS011;34792;52.154;10.374;2022-11-20T07:24:24;3.75;;;2.10;;
41329;SDS011;34792;52.154;10.374;2022-11-20T07:26:49;3.85;;;2.35;;
41329;SDS011;34792;52.154;10.374;2022-11-20T07:29:15;3.97;;;2.10;;
41329;SDS011;34792;52.154;10.374;2022-11-20T07:31:41;3.25;;;1.80;;
41329;SDS011;34792;52.154;10.374;2022-11-20T07:34:07;5.20;;;2.85;;
41329;SDS011;34792;52.154;10.374;2022-11-20T07:36:32;3.00;;;1.73;;
41329;SDS011;34792;52.154;10.374;2022-11-20T07:38:58;3.40;;;2.38;;
41329;SDS011;34792;52.154;10.374;2022-11-20T07:41:23;4.03;;;2.28;;
41329;SDS011;34792;52.154;10.374;2022-11-20T07:43:49;3.95;;;2.08;;
41329;SDS011;34792;52.154;10.374;2022-11-20T07:46:14;4.00;;;2.40;;
41329;SDS011;34792;52.154;10.374;2022-11-20T07:48:40;3.17;;;2.05;;
41329;SDS011;34792;52.154;10.374;2022-11-20T07:51:05;3.95;;;2.30;;
41329;SDS011;34792;52.154;10.374;2022-11-20T07:53:31;3.08;;;2.13;;
41329;SDS011;34792;52.154;10.374;2022-11-20T07:56:00;5.28;;;2.42;;
41329;SDS011;34792;52.154;10.374;2022-11-20T07:58:26;4.07;;;2.10;;
41329;SDS011;34792;52.154;10.374;2022-11-20T08:00:54;4.47;;;2.88;;
41329;SDS011;34792;52.154;10.374;2022-11-20T08:03:19;3.03;;;1.90;;
41329;SDS011;34792;52.154;10.374;2022-11-20T08:05:45;3.42;;;2.17;;
41329;SDS011;34792;52.154;10.374;2022-11-20T08:08:11;3.30;;;2.17;;
41329;SDS011;34792;52.154;10.374;2022-11-20T08:10:36;4.40;;;2.08;;
41329;SDS011;34792;52.154;10.374;2022-11-20T08:13:02;3.78;;;2.03;;
41329;SDS011;34792;52.154;10.374;2022-11-20T08:15:49;3.28;;;2.13;;
41329;SDS011;34792;52.154;10.374;2022-11-20T08:18:18;4.00;;;2.28;;
41329;SDS011;34792;52.154;10.374;2022-11-20T08:20:44;4.25;;;2.08;;
41329;SDS011;34792;52.154;10.374;2022-11-20T08:23:09;3.55;;;2.38;;
41329;SDS011;34792;52.154;10.374;2022-11-20T08:25:36;3.17;;;2.35;;
41329;SDS011;34792;52.154;10.374;2022-11-20T08:28:04;3.75;;;2.22;;
41329;SDS011;34792;52.154;10.374;2022-11-20T08:30:30;2.78;;;1.70;;
41329;SDS011;34792;52.154;10.374;2022-11-20T08:33:00;3.67;;;2.30;;
41329;SDS011;34792;52.154;10.374;2022-11-20T08:35:37;3.25;;;2.08;;
41329;SDS011;34792;52.154;10.374;2022-11-20T08:40:29;3.28;;;1.85;;
41329;SDS011;34792;52.154;10.374;2022-11-20T08:42:54;3.40;;;2.25;;
41329;SDS011;34792;52.154;10.374;2022-11-20T08:45:20;5.05;;;2.88;;
41329;SDS011;34792;52.154;10.374;2022-11-20T08:47:46;3.80;;;2.35;;
41329;SDS011;34792;52.154;10.374;2022-11-20T08:50:13;3.10;;;1.80;;
41329;SDS011;34792;52.154;10.374;2022-11-20T08:52:39;3.03;;;1.95;;
41329;SDS011;34792;52.154;10.374;2022-11-20T08:55:05;7.63;;;5.93;;
41329;SDS011;34792;52.154;10.374;2022-11-20T08:57:35;14.35;;;10.05;;
41329;SDS011;34792;52.154;10.374;2022-11-20T09:00:01;10.63;;;9.10;;
41329;SDS011;34792;52.154;10.374;2022-11-20T09:02:28;12.40;;;8.93;;
41329;SDS011;34792;52.154;10.374;2022-11-20T09:04:53;11.20;;;7.90;;
41329;SDS011;34792;52.154;10.374;2022-11-20T09:07:19;9.32;;;7.05;;
41329;SDS011;34792;52.154;10.374;2022-11-20T09:09:45;10.05;;;7.28;;
41329;SDS011;34792;52.154;10.374;2022-11-20T09:12:10;8.73;;;5.88;;
41329;SDS011;34792;52.154;10.374;2022-11-20T09:14:36;10.07;;;6.32;;
41329;SDS011;34792;52.154;10.374;2022-11-20T09:17:02;7.15;;;5.68;;
41329;SDS011;34792;52.154;10.374;2022-11-20T09:19:27;9.35;;;6.93;;
41329;SDS011;34792;52.154;10.374;2022-11-20T09:21:53;7.47;;;5.57;;
41329;SDS011;34792;52.154;10.374;2022-11-20T09:24:18;7.05;;;5.35;;
41329;SDS011;34792;52.154;10.374;2022-11-20T09:26:45;9.15;;;5.55;;
41329;SDS011;34792;52.154;10.374;2022-11-20T09:29:11;7.32;;;5.88;;
41329;SDS011;34792;52.154;10.374;2022-11-20T09:31:37;6.90;;;4.70;;
41329;SDS011;34792;52.154;10.374;2022-11-20T09:34:03;7.20;;;5.45;;
41329;SDS011;34792;52.154;10.374;2022-11-20T09:36:29;9.73;;;4.68;;
41329;SDS011;34792;52.154;10.374;2022-11-20T09:38:54;6.75;;;4.90;;
41329;SDS011;34792;52.154;10.374;2022-11-20T09:44:40;6.50;;;4.53;;
41329;SDS011;34792;52.154;10.374;2022-11-20T09:55:46;5.85;;;4.18;;
41329;SDS011;34792;52.154;10.374;2022-11-20T09:58:14;4.03;;;3.00;;
41329;SDS011;34792;52.154;10.374;2022-11-20T10:00:49;4.38;;;3.65;;
41329;SDS011;34792;52.154;10.374;2022-11-20T10:03:21;5.45;;;3.40;;
41329;SDS011;34792;52.154;10.374;2022-11-20T10:05:56;4.75;;;3.58;;
41329;SDS011;34792;52.154;10.374;2022-11-20T10:08:28;4.45;;;2.88;;
41329;SDS011;34792;52.154;10.374;2022-11-20T10:11:01;6.70;;;4.28;;
41329;SDS011;34792;52.154;10.374;2022-11-20T10:24:56;4.45;;;3.33;;
41329;SDS011;34792;52.154;10.374;2022-11-20T10:30:36;6.10;;;3.05;;
41329;SDS011;34792;52.154;10.374;2022-11-20T10:33:23;5.45;;;3.00;;
41329;SDS011;34792;52.154;10.374;2022-11-20T10:38:37;5.97;;;3.45;;
41329;SDS011;34792;52.154;10.374;2022-11-20T10:41:06;3.38;;;2.63;;
41329;SDS011;34792;52.154;10.374;2022-11-20T10:49:48;6.57;;;2.97;;
41329;SDS011;34792;52.154;10.374;2022-11-20T10:52:24;6.93;;;3.30;;
41329;SDS011;34792;52.154;10.374;2022-11-20T11:00:33;8.57;;;2.97;;
41329;SDS011;34792;52.154;10.374;2022-11-20T11:02:58;5.72;;;3.60;;
41329;SDS011;34792;52.154;10.374;2022-11-20T11:08:14;4.22;;;2.92;;
41329;SDS011;34792;52.154;10.374;2022-11-20T11:10:56;3.88;;;2.67;;
41329;SDS011;34792;52.154;10.374;2022-11-20T11:13:24;4.95;;;3.30;;
41329;SDS011;34792;52.154;10.374;2022-11-20T11:15:51;5.13;;;3.70;;
41329;SDS011;34792;52.154;10.374;2022-11-20T11:18:27;7.18;;;3.10;;
41329;SDS011;34792;52.154;10.374;2022-11-20T11:20:59;13.30;;;2.75;;
41329;SDS011;34792;52.154;10.374;2022-11-20T11:23:30;17.35;;;3.20;;
41329;SDS011;34792;52.154;10.374;2022-11-20T11:26:04;4.45;;;3.10;;
41329;SDS011;34792;52.154;10.374;2022-11-20T11:28:31;7.05;;;3.92;;
41329;SDS011;34792;52.154;10.374;2022-11-20T11:30:57;3.95;;;2.50;;
41329;SDS011;34792;52.154;10.374;2022-11-20T11:35:56;6.45;;;2.70;;
41329;SDS011;34792;52.154;10.374;2022-11-20T11:38:38;4.00;;;2.22;;
41329;SDS011;34792;52.154;10.374;2022-11-20T11:41:05;6.68;;;3.05;;
41329;SDS011;34792;52.154;10.374;2022-11-20T11:43:32;3.83;;;2.97;;
41329;SDS011;34792;52.154;10.374;2022-11-20T11:49:01;4.78;;;2.80;;
41329;SDS011;34792;52.154;10.374;2022-11-20T11:57:07;3.97;;;3.15;;
41329;SDS011;34792;52.154;10.374;2022-11-20T12:02:03;4.68;;;3.05;;
41329;SDS011;34792;52.154;10.374;2022-11-20T12:04:50;3.72;;;2.40;;
41329;SDS011;34792;52.154;10.374;2022-11-20T12:09:57;6.95;;;4.95;;
41329;SDS011;34792;52.154;10.374;2022-11-20T12:12:27;20.63;;;4.68;;
41329;SDS011;34792;52.154;10.374;2022-11-20T12:15:02;13.90;;;3.35;;
41329;SDS011;34792;52.154;10.374;2022-11-20T12:17:29;6.15;;;3.05;;
41329;SDS011;34792;52.154;10.374;2022-11-20T12:19:55;14.25;;;4.07;;
41329;SDS011;34792;52.154;10.374;2022-11-20T12:22:32;5.93;;;3.28;;
41329;SDS011;34792;52.154;10.374;2022-11-20T12:25:10;6.13;;;3.13;;
41329;SDS011;34792;52.154;10.374;2022-11-20T12:27:56;5.32;;;3.45;;
41329;SDS011;34792;52.154;10.374;2022-11-20T12:30:59;9.40;;;3.67;;
41329;SDS011;34792;52.154;10.374;2022-11-20T12:36:06;9.75;;;3.17;;
41329;SDS011;34792;52.154;10.374;2022-11-20T12:44:46;4.22;;;2.63;;
41329;SDS011;34792;52.154;10.374;2022-11-20T13:04:12;4.43;;;2.90;;
41329;SDS011;34792;52.154;10.374;2022-11-20T13:06:42;4.45;;;2.83;;
41329;SDS011;34792;52.154;10.374;2022-11-20T13:09:10;8.00;;;3.00;;
41329;SDS011;34792;52.154;10.374;2022-11-20T13:17:00;4.60;;;2.60;;
41329;SDS011;34792;52.154;10.374;2022-11-20T13:19:53;5.57;;;2.60;;
41329;SDS011;34792;52.154;10.374;2022-11-20T13:27:56;4.50;;;2.83;;
41329;SDS011;34792;52.154;10.374;2022-11-20T13:30:24;4.97;;;2.38;;
41329;SDS011;34792;52.154;10.374;2022-11-20T13:36:03;5.97;;;3.70;;
41329;SDS011;34792;52.154;10.374;2022-11-20T13:38:19;7.18;;;3.22;;
41329;SDS011;34792;52.154;10.374;2022-11-20T13:40:58;4.95;;;3.20;;
41329;SDS011;34792;52.154;10.374;2022-11-20T13:43:44;10.13;;;3.17;;
41329;SDS011;34792;52.154;10.374;2022-11-20T13:46:10;6.85;;;2.90;;
41329;SDS011;34792;52.154;10.374;2022-11-20T13:48:42;5.38;;;3.28;;
41329;SDS011;34792;52.154;10.374;2022-11-20T13:51:12;4.80;;;2.75;;
41329;SDS011;34792;52.154;10.374;2022-11-20T13:59:42;5.55;;;3.42;;
41329;SDS011;34792;52.154;10.374;2022-11-20T14:02:19;4.93;;;3.00;;
41329;SDS011;34792;52.154;10.374;2022-11-20T14:04:48;3.72;;;2.13;;
41329;SDS011;34792;52.154;10.374;2022-11-20T14:07:18;4.82;;;2.92;;
41329;SDS011;34792;52.154;10.374;2022-11-20T14:09:50;2.85;;;2.10;;
41329;SDS011;34792;52.154;10.374;2022-11-20T14:12:26;4.32;;;2.80;;
41329;SDS011;34792;52.154;10.374;2022-11-20T14:14:56;3.67;;;2.63;;
41329;SDS011;34792;52.154;10.374;2022-11-20T14:19:53;3.83;;;2.45;;
41329;SDS011;34792;52.154;10.374;2022-11-20T14:22:20;4.78;;;2.60;;
41329;SDS011;34792;52.154;10.374;2022-11-20T14:24:48;5.07;;;3.10;;
41329;SDS011;34792;52.154;10.374;2022-11-20T14:27:16;3.83;;;2.22;;
41329;SDS011;34792;52.154;10.374;2022-11-20T14:29:46;16.38;;;2.95;;
41329;SDS011;34792;52.154;10.374;2022-11-20T14:32:19;4.90;;;3.03;;
41329;SDS011;34792;52.154;10.374;2022-11-20T14:34:47;5.53;;;2.47;;
41329;SDS011;34792;52.154;10.374;2022-11-20T14:37:24;4.40;;;2.83;;
41329;SDS011;34792;52.154;10.374;2022-11-20T14:39:54;3.30;;;2.17;;
41329;SDS011;34792;52.154;10.374;2022-11-20T14:42:24;4.03;;;2.38;;
41329;SDS011;34792;52.154;10.374;2022-11-20T14:44:52;3.20;;;1.95;;
41329;SDS011;34792;52.154;10.374;2022-11-20T14:47:27;5.32;;;3.05;;
41329;SDS011;34792;52.154;10.374;2022-11-20T14:49:54;2.97;;;2.53;;
41329;SDS011;34792;52.154;10.374;2022-11-20T14:52:22;4.00;;;1.80;;
41329;SDS011;34792;52.154;10.374;2022-11-20T14:54:50;6.82;;;2.85;;
41329;SDS011;34792;52.154;10.374;2022-11-20T14:57:26;3.13;;;2.40;;
41329;SDS011;34792;52.154;10.374;2022-11-20T15:02:44;4.40;;;2.58;;
41329;SDS011;34792;52.154;10.374;2022-11-20T15:05:12;4.40;;;2.40;;
41329;SDS011;34792;52.154;10.374;2022-11-20T15:07:40;3.28;;;2.15;;
41329;SDS011;34792;52.154;10.374;2022-11-20T15:10:11;3.10;;;1.95;;
41329;SDS011;34792;52.154;10.374;2022-11-20T15:12:38;4.20;;;2.60;;
41329;SDS011;34792;52.154;10.374;2022-11-20T15:15:10;3.60;;;2.45;;
41329;SDS011;34792;52.154;10.374;2022-11-20T15:17:37;2.75;;;1.90;;
41329;SDS011;34792;52.154;10.374;2022-11-20T15:20:05;2.92;;;1.77;;
41329;SDS011;34792;52.154;10.374;2022-11-20T15:22:39;3.70;;;2.03;;
41329;SDS011;34792;52.154;10.374;2022-11-20T15:25:14;3.42;;;2.60;;
41329;SDS011;34792;52.154;10.374;2022-11-20T15:27:42;3.72;;;2.53;;
41329;SDS011;34792;52.154;10.374;2022-11-20T15:30:18;3.15;;;2.05;;
41329;SDS011;34792;52.154;10.374;2022-11-20T15:32:44;3.63;;;2.05;;
41329;SDS011;34792;52.154;10.374;2022-11-20T15:35:11;5.60;;;2.55;;
41329;SDS011;34792;52.154;10.374;2022-11-20T15:37:37;3.78;;;2.10;;
41329;SDS011;34792;52.154;10.374;2022-11-20T15:40:03;3.60;;;1.92;;
41329;SDS011;34792;52.154;10.374;2022-11-20T15:42:30;3.83;;;2.10;;
41329;SDS011;34792;52.154;10.374;2022-11-20T15:44:55;5.15;;;2.28;;
41329;SDS011;34792;52.154;10.374;2022-11-20T15:47:22;2.88;;;1.95;;
41329;SDS011;34792;52.154;10.374;2022-11-20T15:49:52;3.40;;;2.22;;
41329;SDS011;34792;52.154;10.374;2022-11-20T15:52:17;2.55;;;1.75;;
41329;SDS011;34792;52.154;10.374;2022-11-20T15:54:43;3.45;;;1.98;;
41329;SDS011;34792;52.154;10.374;2022-11-20T15:57:08;2.92;;;1.55;;
41329;SDS011;34792;52.154;10.374;2022-11-20T15:59:34;2.80;;;1.90;;
41329;SDS011;34792;52.154;10.374;2022-11-20T16:02:07;3.55;;;2.67;;
41329;SDS011;34792;52.154;10.374;2022-11-20T16:04:34;4.82;;;2.78;;
41329;SDS011;34792;52.154;10.374;2022-11-20T16:07:00;2.75;;;1.90;;
41329;SDS011;34792;52.154;10.374;2022-11-20T16:09:25;4.85;;;2.67;;
41329;SDS011;34792;52.154;10.374;2022-11-20T16:11:51;3.13;;;1.90;;
41329;SDS011;34792;52.154;10.374;2022-11-20T16:14:16;4.25;;;2.30;;
41329;SDS011;34792;52.154;10.374;2022-11-20T16:17:00;4.55;;;2.10;;
41329;SDS011;34792;52.154;10.374;2022-11-20T16:19:26;4.28;;;2.70;;
41329;SDS011;34792;52.154;10.374;2022-11-20T16:21:52;4.32;;;2.40;;
41329;SDS011;34792;52.154;10.374;2022-11-20T16:24:17;3.35;;;2.13;;
41329;SDS011;34792;52.154;10.374;2022-11-20T16:26:43;2.65;;;1.70;;
41329;SDS011;34792;52.154;10.374;2022-11-20T16:29:08;3.85;;;2.30;;
41329;SDS011;34792;52.154;10.374;2022-11-20T16:31:35;2.88;;;1.70;;
41329;SDS011;34792;52.154;10.374;2022-11-20T16:34:02;2.40;;;1.60;;
41329;SDS011;34792;52.154;10.374;2022-11-20T16:36:29;3.65;;;2.33;;
41329;SDS011;34792;52.154;10.374;2022-11-20T16:38:55;6.05;;;2.53;;
41329;SDS011;34792;52.154;10.374;2022-11-20T16:41:22;2.25;;;1.58;;
41329;SDS011;34792;52.154;10.374;2022-11-20T16:43:49;2.85;;;1.60;;
41329;SDS011;34792;52.154;10.374;2022-11-20T16:46:16;2.38;;;1.50;;